Spring Sky — 9V3060 — position and weather

sailwx.info

Track history (hours):
 
Tides and Currents Weather Stations Pressure Air Temp Water Temp Dewpoint Dewpoint Depression Visibility Wind Speed Wind Dir Waves Ship Positions

Spring Sky

Last reported at 2017-Nov-18 18:46 UTC. Time now 2017-Nov-23 11:24 UTC.
Position N 01°16' E 104°07'.

Length 199 m; draft 12.7 m.

Type: Cargo ship. MMSI: 565775000.

Date/timePositionNaut miles runAvg speedWind from/ knotsBaromVisibWave heightAir tempDewpointWater temp
2017-Nov-18 18:46N 01°16' E 104°07'312.6
2017-Nov-18 18:30N 01°15' E 104°04'5 9.6
2017-Nov-18 17:59N 01°15' E 103°59'2 2.4
2017-Nov-18 17:18N 01°16' E 103°58'0 0.2
2017-Nov-18 16:54N 01°16' E 103°58'0 0.1
2017-Nov-18 16:21N 01°16' E 103°58'0 0.0
2017-Nov-18 16:00N 01°16' E 103°58'0 0.0
2017-Nov-18 15:27N 01°16' E 103°58'0 0.0
2017-Nov-18 14:57N 01°16' E 103°58'0 0.0
2017-Nov-18 14:30N 01°16' E 103°58'0 0.0
2017-Nov-18 14:00N 01°16' E 103°58'0 0.0
2017-Nov-18 13:30N 01°16' E 103°58'0 0.1
2017-Nov-18 12:33N 01°16' E 103°58'0 1.2
2017-Nov-18 12:30N 01°16' E 103°58'0 0.2
2017-Nov-18 11:57N 01°16' E 103°58'0 0.1
2017-Nov-18 11:24N 01°16' E 103°58'0 0.1
2017-Nov-18 10:57N 01°16' E 103°58'0 0.2
2017-Nov-18 10:22N 01°16' E 103°58'1 1.7
2017-Nov-18 10:00N 01°16' E 103°58'1 2.8
2017-Nov-18 09:30N 01°15' E 103°57'2 4.6
2017-Nov-18 09:01N 01°13' E 103°55'4 7.1
2017-Nov-18 08:30N 01°12' E 103°52'4 8.2
2017-Nov-18 08:00N 01°10' E 103°49'5 9.5
2017-Nov-18 07:30N 01°07' E 103°45'5 9.5
2017-Nov-18 07:01N 01°04' E 103°41'4 8.7
2017-Nov-18 06:30N 01°04' E 103°37'5 9.7
2017-Nov-18 05:59N 01°06' E 103°32'610.2
2017-Nov-18 05:23N 01°09' E 103°27'410.8
2017-Nov-18 05:00N 01°12' E 103°24'610.8
2017-Nov-18 04:26N 01°16' E 103°19'  
Track history (hours):
 
Tides and Currents Weather Stations Pressure Air Temp Water Temp Dewpoint Dewpoint Depression Visibility Wind Speed Wind Dir Waves Ship Positions

Spring Sky

Last reported at 2017-Nov-18 18:46 UTC. Time now 2017-Nov-23 11:24 UTC.
Position N 01°16' E 104°07'.

Length 199 m; draft 12.7 m.

Type: Cargo ship. MMSI: 565775000.

Date/timePositionNaut miles runAvg speedWind from/ knotsBaromVisibWave heightAir tempDewpointWater temp
2017-Nov-18 18:46N 01°16' E 104°07'312.6
2017-Nov-18 18:30N 01°15' E 104°04'5 9.6
2017-Nov-18 17:59N 01°15' E 103°59'2 2.4
2017-Nov-18 17:18N 01°16' E 103°58'0 0.2
2017-Nov-18 16:54N 01°16' E 103°58'0 0.1
2017-Nov-18 16:21N 01°16' E 103°58'0 0.0
2017-Nov-18 16:00N 01°16' E 103°58'0 0.0
2017-Nov-18 15:27N 01°16' E 103°58'0 0.0
2017-Nov-18 14:57N 01°16' E 103°58'0 0.0
2017-Nov-18 14:30N 01°16' E 103°58'0 0.0
2017-Nov-18 14:00N 01°16' E 103°58'0 0.0
2017-Nov-18 13:30N 01°16' E 103°58'0 0.1
2017-Nov-18 12:33N 01°16' E 103°58'0 1.2
2017-Nov-18 12:30N 01°16' E 103°58'0 0.2
2017-Nov-18 11:57N 01°16' E 103°58'0 0.1
2017-Nov-18 11:24N 01°16' E 103°58'0 0.1
2017-Nov-18 10:57N 01°16' E 103°58'0 0.2
2017-Nov-18 10:22N 01°16' E 103°58'1 1.7
2017-Nov-18 10:00N 01°16' E 103°58'1 2.8
2017-Nov-18 09:30N 01°15' E 103°57'2 4.6
2017-Nov-18 09:01N 01°13' E 103°55'4 7.1
2017-Nov-18 08:30N 01°12' E 103°52'4 8.2
2017-Nov-18 08:00N 01°10' E 103°49'5 9.5
2017-Nov-18 07:30N 01°07' E 103°45'5 9.5
2017-Nov-18 07:01N 01°04' E 103°41'4 8.7
2017-Nov-18 06:30N 01°04' E 103°37'5 9.7
2017-Nov-18 05:59N 01°06' E 103°32'610.2
2017-Nov-18 05:23N 01°09' E 103°27'410.8
2017-Nov-18 05:00N 01°12' E 103°24'610.8
2017-Nov-18 04:26N 01°16' E 103°19'  

Dump ship's entire track history